Time;durP1;ratioP1;P1;durP2;ratioP2;P2;SDS_P1;SDS_P2;PMS_P1;PMS_P2;Temp;Humidity;BMP_temperature;BMP_pressure;BME280_temperature;BME280_humidity;BME280_pressure;Samples;Min_cycle;Max_cycle;Signal;HPM_P1;HPM_P2
2022/09/12 00:00:44;;;;;;;;;;;10.00;99.90;;;;;;5047226;28;19979;-90
2022/09/12 00:03:10;;;;;;;;;;;9.90;99.90;;;;;;5048352;28;20360;-90
2022/09/12 00:05:45;;;;;;;;;;;9.80;99.90;;;;;;5041084;28;19923;-90
2022/09/12 00:08:11;;;;;;;;;;;9.80;99.90;;;;;;5027755;28;19913;-90
2022/09/12 00:10:38;;;;;;;;;;;9.80;99.90;;;;;;5046570;28;20092;-90
2022/09/12 00:13:04;;;;;;;;;;;9.80;99.90;;;;;;5038697;28;19944;-90
2022/09/12 00:15:29;;;;;;;;;;;9.90;99.90;;;;;;5050653;28;19959;-89
2022/09/12 00:17:55;;;;;;;;;;;9.80;99.90;;;;;;5056941;28;19916;-90
2022/09/12 00:20:20;;;;;;;;;;;9.70;99.90;;;;;;5038503;28;20657;-90
2022/09/12 00:22:46;;;;;;;;;;;9.70;99.90;;;;;;5050871;28;19908;-89
2022/09/12 00:25:11;;;;;;;;;;;9.70;99.90;;;;;;5052677;28;20338;-89
2022/09/12 00:27:37;;;;;;;;;;;9.70;99.90;;;;;;5061166;28;19913;-90
2022/09/12 00:30:03;;;;;;;;;;;9.60;99.90;;;;;;5064230;28;19920;-90
2022/09/12 00:32:28;;;;;;;;;;;9.60;99.90;;;;;;5054093;28;20396;-90
2022/09/12 00:34:54;;;;;;;;;;;9.60;99.90;;;;;;5067199;28;19913;-90
2022/09/12 00:37:19;;;;;;;;;;;9.60;99.90;;;;;;5022613;28;19982;-89
2022/09/12 00:39:45;;;;;;;;;;;9.60;99.90;;;;;;5055105;28;19919;-89
2022/09/12 00:42:11;;;;;;;;;;;9.50;99.90;;;;;;5040502;28;19924;-90
2022/09/12 00:44:36;;;;;;;;;;;9.40;99.90;;;;;;5044741;28;20388;-90
2022/09/12 00:47:09;;;;;;;;;;;9.40;99.90;;;;;;5039537;28;19916;-89
2022/09/12 00:49:42;;;;;;;;;;;9.40;99.90;;;;;;5049374;28;19909;-90
2022/09/12 00:52:31;;;;;;;;;;;9.40;99.90;;;;;;5046376;28;19917;-90
2022/09/12 00:54:57;;;;;;;;;;;9.30;99.90;;;;;;5020962;28;19954;-90
2022/09/12 00:57:25;;;;;;;;;;;9.30;99.90;;;;;;5048193;28;19912;-90
2022/09/12 00:59:56;;;;;;;;;;;9.40;99.90;;;;;;5040971;28;19923;-90
2022/09/12 01:02:22;;;;;;;;;;;9.50;99.90;;;;;;5026351;28;19948;-90
2022/09/12 01:04:48;;;;;;;;;;;9.50;99.90;;;;;;5051090;28;19931;-90
2022/09/12 01:07:14;;;;;;;;;;;9.40;99.90;;;;;;5039193;28;19975;-90
2022/09/12 01:09:40;;;;;;;;;;;9.50;99.90;;;;;;5034897;28;20372;-90
2022/09/12 01:12:07;;;;;;;;;;;9.40;99.90;;;;;;5045668;28;20369;-89
2022/09/12 01:14:33;;;;;;;;;;;9.40;99.90;;;;;;5045109;28;19920;-91
2022/09/12 01:16:59;;;;;;;;;;;9.30;99.90;;;;;;5047029;28;20452;-90
2022/09/12 01:19:27;;;;;;;;;;;9.20;99.90;;;;;;5045854;28;19913;-90
2022/09/12 01:22:12;;;;;;;;;;;9.20;99.90;;;;;;5048947;28;19909;-90
2022/09/12 01:24:40;;;;;;;;;;;9.10;99.90;;;;;;5035661;28;19917;-89
2022/09/12 01:27:06;;;;;;;;;;;9.10;99.90;;;;;;5047618;28;19908;-90
2022/09/12 01:29:55;;;;;;;;;;;9.10;99.90;;;;;;5043402;28;19915;-90
2022/09/12 01:32:23;;;;;;;;;;;9.00;99.90;;;;;;5033301;28;20072;-90
2022/09/12 01:34:55;;;;;;;;;;;9.00;99.90;;;;;;5030923;28;19912;-90
2022/09/12 01:37:37;;;;;;;;;;;8.90;99.90;;;;;;5044370;28;19967;-90
2022/09/12 01:40:15;;;;;;;;;;;8.90;99.90;;;;;;5042631;28;19958;-89
2022/09/12 01:42:40;;;;;;;;;;;8.90;99.90;;;;;;5046737;28;19999;-90
2022/09/12 01:45:19;;;;;;;;;;;8.80;99.90;;;;;;5045793;28;20328;-90
2022/09/12 01:48:11;;;;;;;;;;;8.90;99.90;;;;;;5034728;28;19963;-89
2022/09/12 01:50:43;;;;;;;;;;;8.90;99.90;;;;;;5035386;28;20396;-89
2022/09/12 01:53:12;;;;;;;;;;;8.90;99.90;;;;;;5049007;28;20015;-90
2022/09/12 01:55:44;;;;;;;;;;;8.90;99.90;;;;;;5036147;28;20454;-89
2022/09/12 01:58:26;;;;;;;;;;;8.80;99.90;;;;;;5035365;28;19935;-90
2022/09/12 02:01:03;;;;;;;;;;;8.90;99.90;;;;;;5045146;28;19916;-90
2022/09/12 02:03:36;;;;;;;;;;;8.80;99.90;;;;;;5043199;28;19915;-90
2022/09/12 02:06:14;;;;;;;;;;;8.70;99.90;;;;;;5044953;28;19913;-89
2022/09/12 02:08:43;;;;;;;;;;;8.70;99.90;;;;;;5044980;28;20364;-90
2022/09/12 02:11:10;;;;;;;;;;;8.70;99.90;;;;;;5040474;28;19987;-90
2022/09/12 02:13:43;;;;;;;;;;;8.80;99.90;;;;;;5041845;28;19913;-90
2022/09/12 02:16:10;;;;;;;;;;;8.80;99.90;;;;;;5045205;28;19915;-90
2022/09/12 02:18:43;;;;;;;;;;;8.90;99.90;;;;;;5037533;28;20611;-90
2022/09/12 02:21:09;;;;;;;;;;;8.90;99.90;;;;;;5047595;28;19916;-90
2022/09/12 02:23:37;;;;;;;;;;;9.10;99.90;;;;;;5027517;28;19917;-90
2022/09/12 02:26:05;;;;;;;;;;;9.10;99.90;;;;;;5050181;28;19923;-90
2022/09/12 02:28:36;;;;;;;;;;;9.10;99.90;;;;;;5038428;28;19920;-90
2022/09/12 02:31:15;;;;;;;;;;;9.00;99.90;;;;;;5038168;28;19925;-90
2022/09/12 02:33:41;;;;;;;;;;;9.20;99.90;;;;;;5039798;28;20021;-90
2022/09/12 02:36:14;;;;;;;;;;;9.40;99.90;;;;;;5047513;28;19913;-89
2022/09/12 02:38:39;;;;;;;;;;;9.50;99.90;;;;;;5038289;28;20077;-90
2022/09/12 02:41:06;;;;;;;;;;;9.60;99.90;;;;;;5039708;28;20416;-89
2022/09/12 02:43:31;;;;;;;;;;;9.60;99.90;;;;;;5051058;28;19936;-90
2022/09/12 02:45:58;;;;;;;;;;;9.60;99.90;;;;;;5058973;28;19999;-90
2022/09/12 02:48:29;;;;;;;;;;;9.60;99.90;;;;;;5045724;28;19944;-90
2022/09/12 02:50:54;;;;;;;;;;;9.60;99.90;;;;;;5044676;28;20281;-89
2022/09/12 02:53:20;;;;;;;;;;;9.60;99.90;;;;;;5049843;28;19918;-89
2022/09/12 02:55:46;;;;;;;;;;;9.40;99.90;;;;;;5044002;28;19908;-90
2022/09/12 02:58:19;;;;;;;;;;;9.50;99.90;;;;;;5039285;28;19913;-90
2022/09/12 03:01:09;;;;;;;;;;;9.60;99.90;;;;;;5042327;28;19921;-90
2022/09/12 03:03:34;;;;;;;;;;;9.80;99.90;;;;;;5026053;28;19913;-90
2022/09/12 03:06:02;;;;;;;;;;;9.90;99.90;;;;;;5027790;28;19920;-90
2022/09/12 03:08:47;;;;;;;;;;;9.90;99.90;;;;;;5018342;28;20377;-90
2022/09/12 03:11:25;;;;;;;;;;;10.00;99.90;;;;;;5026606;28;19995;-90
2022/09/12 03:14:09;;;;;;;;;;;9.90;99.90;;;;;;5028887;28;19920;-89
2022/09/12 03:16:35;;;;;;;;;;;10.00;99.90;;;;;;5022940;28;20394;-90
2022/09/12 03:19:19;;;;;;;;;;;10.00;99.90;;;;;;5023688;28;19909;-90
2022/09/12 03:21:49;;;;;;;;;;;9.90;99.90;;;;;;5027704;28;20047;-90
2022/09/12 03:24:25;;;;;;;;;;;9.90;99.90;;;;;;5028582;28;20262;-90
2022/09/12 03:26:56;;;;;;;;;;;9.80;99.90;;;;;;5023652;28;20317;-90
2022/09/12 03:29:23;;;;;;;;;;;9.90;99.90;;;;;;5038531;28;19905;-89
2022/09/12 03:31:55;;;;;;;;;;;9.90;99.90;;;;;;5071709;28;19905;-90
2022/09/12 03:34:21;;;;;;;;;;;9.90;99.90;;;;;;5029700;28;19910;-90
2022/09/12 03:36:47;;;;;;;;;;;9.90;99.90;;;;;;5031183;28;19919;-90
2022/09/12 03:39:13;;;;;;;;;;;9.90;99.90;;;;;;5046080;28;19992;-90
2022/09/12 03:41:39;;;;;;;;;;;9.90;99.90;;;;;;5046670;28;19924;-90
2022/09/12 03:44:04;;;;;;;;;;;9.90;99.90;;;;;;5058293;28;19916;-90
2022/09/12 03:46:30;;;;;;;;;;;9.90;99.90;;;;;;5036264;28;19963;-89
2022/09/12 03:48:55;;;;;;;;;;;9.90;99.90;;;;;;5044352;28;20011;-90
2022/09/12 03:51:21;;;;;;;;;;;9.80;99.90;;;;;;5043492;28;20319;-90
2022/09/12 03:53:46;;;;;;;;;;;10.00;99.90;;;;;;5041099;28;19912;-90
2022/09/12 03:56:12;;;;;;;;;;;9.90;99.90;;;;;;5052137;28;19913;-89
2022/09/12 03:58:38;;;;;;;;;;;10.00;99.90;;;;;;5051866;28;19974;-90
2022/09/12 04:01:11;;;;;;;;;;;9.90;99.90;;;;;;5039163;28;19923;-90
2022/09/12 04:03:40;;;;;;;;;;;10.00;99.90;;;;;;5043531;28;19913;-90
2022/09/12 04:06:07;;;;;;;;;;;10.00;99.90;;;;;;5043198;28;19913;-90
2022/09/12 04:08:33;;;;;;;;;;;10.00;99.90;;;;;;5049683;28;20011;-89
2022/09/12 04:11:06;;;;;;;;;;;10.00;99.90;;;;;;5040420;28;19916;-90
2022/09/12 04:13:33;;;;;;;;;;;10.00;99.90;;;;;;5044732;28;20399;-91
2022/09/12 04:15:59;;;;;;;;;;;10.00;99.90;;;;;;5042848;28;19917;-90
2022/09/12 04:18:24;;;;;;;;;;;10.00;99.90;;;;;;5046122;28;19924;-90
2022/09/12 04:20:50;;;;;;;;;;;10.00;99.90;;;;;;5041698;28;19920;-91
2022/09/12 04:23:15;;;;;;;;;;;10.10;99.90;;;;;;5051258;28;19920;-90
2022/09/12 04:25:41;;;;;;;;;;;10.00;99.90;;;;;;5024048;28;19921;-89
2022/09/12 04:28:06;;;;;;;;;;;9.90;99.90;;;;;;5050705;28;19917;-90
2022/09/12 04:30:33;;;;;;;;;;;9.80;99.90;;;;;;5037249;28;20000;-90
2022/09/12 04:32:58;;;;;;;;;;;10.00;99.90;;;;;;5033761;28;19916;-90
2022/09/12 04:35:24;;;;;;;;;;;10.10;99.90;;;;;;5044842;28;20438;-90
2022/09/12 04:37:50;;;;;;;;;;;10.10;99.90;;;;;;5045811;28;19909;-90
2022/09/12 04:40:15;;;;;;;;;;;9.90;99.90;;;;;;5039861;28;19912;-90
2022/09/12 04:42:41;;;;;;;;;;;9.90;99.90;;;;;;5048101;28;19920;-90
2022/09/12 04:45:06;;;;;;;;;;;9.90;99.90;;;;;;5045167;28;19924;-89
2022/09/12 04:47:32;;;;;;;;;;;10.00;99.90;;;;;;5046993;28;19912;-89
2022/09/12 04:49:57;;;;;;;;;;;9.90;99.90;;;;;;5042045;28;20304;-90
2022/09/12 04:52:23;;;;;;;;;;;10.00;99.90;;;;;;5045001;28;19928;-90
2022/09/12 04:54:49;;;;;;;;;;;9.90;99.90;;;;;;5050287;28;19920;-90
2022/09/12 04:57:15;;;;;;;;;;;9.80;99.90;;;;;;5054573;28;19912;-90
2022/09/12 04:59:40;;;;;;;;;;;9.90;99.90;;;;;;5049853;28;19939;-90
2022/09/12 05:02:06;;;;;;;;;;;9.90;99.90;;;;;;5046904;28;19920;-89
2022/09/12 05:04:33;;;;;;;;;;;9.90;99.90;;;;;;5046611;28;19919;-89
2022/09/12 05:06:59;;;;;;;;;;;10.00;99.90;;;;;;5032781;28;19924;-89
2022/09/12 05:09:24;;;;;;;;;;;9.80;99.90;;;;;;5011350;28;20621;-93
2022/09/12 05:11:50;;;;;;;;;;;9.80;99.90;;;;;;5047401;28;19921;-88
2022/09/12 05:14:15;;;;;;;;;;;9.80;99.90;;;;;;5034538;28;20315;-90
2022/09/12 05:16:41;;;;;;;;;;;9.90;99.90;;;;;;5038047;28;19970;-91
2022/09/12 05:19:08;;;;;;;;;;;9.90;99.90;;;;;;5027757;28;20400;-91
2022/09/12 05:21:33;;;;;;;;;;;9.80;99.90;;;;;;5050758;28;19920;-90
2022/09/12 05:23:59;;;;;;;;;;;9.80;99.90;;;;;;5035488;28;19917;-89
2022/09/12 05:26:24;;;;;;;;;;;9.60;99.90;;;;;;5046404;28;19912;-90
2022/09/12 05:28:50;;;;;;;;;;;9.70;99.90;;;;;;5042872;28;20426;-88
2022/09/12 05:31:17;;;;;;;;;;;9.70;99.90;;;;;;5044830;28;19925;-87
2022/09/12 05:33:44;;;;;;;;;;;9.60;99.90;;;;;;5041599;28;19916;-88
2022/09/12 05:36:12;;;;;;;;;;;9.60;99.90;;;;;;5029899;28;19920;-89
2022/09/12 05:38:38;;;;;;;;;;;9.50;99.90;;;;;;5031255;28;19932;-81
2022/09/12 05:41:09;;;;;;;;;;;9.50;99.90;;;;;;5038741;28;20291;-82
2022/09/12 05:43:34;;;;;;;;;;;9.50;99.90;;;;;;5046672;28;19948;-83
2022/09/12 05:46:04;;;;;;;;;;;9.40;99.90;;;;;;5032655;28;20273;-81
2022/09/12 05:48:29;;;;;;;;;;;9.50;99.90;;;;;;5044584;28;19908;-81
2022/09/12 05:51:03;;;;;;;;;;;9.60;99.90;;;;;;5044995;28;20300;-81
2022/09/12 05:53:29;;;;;;;;;;;9.90;99.90;;;;;;5029299;28;19917;-82
2022/09/12 05:56:06;;;;;;;;;;;9.90;99.90;;;;;;5049790;28;19913;-82
2022/09/12 05:58:32;;;;;;;;;;;9.90;99.90;;;;;;5047748;28;19919;-81
2022/09/12 06:01:06;;;;;;;;;;;9.80;99.90;;;;;;5040044;28;20380;-81
2022/09/12 06:03:32;;;;;;;;;;;9.80;99.90;;;;;;5035090;28;19913;-81
2022/09/12 06:06:00;;;;;;;;;;;9.90;99.90;;;;;;5041092;28;19916;-81
2022/09/12 06:08:26;;;;;;;;;;;10.00;99.90;;;;;;5031363;28;19909;-81
2022/09/12 06:10:56;;;;;;;;;;;10.10;99.90;;;;;;5053886;28;19913;-82
2022/09/12 06:13:22;;;;;;;;;;;10.30;99.90;;;;;;5049249;28;20325;-85
2022/09/12 06:15:48;;;;;;;;;;;10.20;99.90;;;;;;5041286;28;20024;-86
2022/09/12 06:18:13;;;;;;;;;;;10.30;99.90;;;;;;5043739;28;20352;-84
2022/09/12 06:20:39;;;;;;;;;;;10.40;99.90;;;;;;5046835;28;19924;-82
2022/09/12 06:23:04;;;;;;;;;;;10.30;99.90;;;;;;5043217;28;19924;-84
2022/09/12 06:25:30;;;;;;;;;;;10.30;99.90;;;;;;5050000;28;19963;-84
2022/09/12 06:27:55;;;;;;;;;;;10.20;99.90;;;;;;5051729;28;20441;-88
2022/09/12 06:30:21;;;;;;;;;;;10.40;99.90;;;;;;5055239;28;19917;-83
2022/09/12 06:32:46;;;;;;;;;;;10.40;99.90;;;;;;5038473;28;19933;-83
2022/09/12 06:35:12;;;;;;;;;;;10.30;99.90;;;;;;5049034;28;19956;-83
2022/09/12 06:37:38;;;;;;;;;;;10.50;99.90;;;;;;5045118;28;19921;-83
2022/09/12 06:40:03;;;;;;;;;;;10.40;99.90;;;;;;5051280;28;20051;-83
2022/09/12 06:42:29;;;;;;;;;;;10.40;99.90;;;;;;5037688;28;19917;-83
2022/09/12 06:44:54;;;;;;;;;;;10.40;99.90;;;;;;5043244;28;19917;-84
2022/09/12 06:47:20;;;;;;;;;;;10.90;99.90;;;;;;5051353;28;19913;-84
2022/09/12 06:49:45;;;;;;;;;;;10.90;99.90;;;;;;5054228;28;20358;-83
2022/09/12 06:52:11;;;;;;;;;;;10.90;99.90;;;;;;5049091;28;19931;-83
2022/09/12 06:54:36;;;;;;;;;;;11.20;99.90;;;;;;5042517;28;20348;-83
2022/09/12 06:57:02;;;;;;;;;;;11.40;99.90;;;;;;5052379;28;19913;-84
2022/09/12 06:59:28;;;;;;;;;;;11.40;99.90;;;;;;5042147;28;19923;-83
2022/09/12 07:01:53;;;;;;;;;;;11.60;99.90;;;;;;5053436;28;19917;-83
2022/09/12 07:04:19;;;;;;;;;;;11.40;99.90;;;;;;5047286;28;20807;-84
2022/09/12 07:06:44;;;;;;;;;;;11.50;99.90;;;;;;5044396;28;19960;-84
2022/09/12 07:09:11;;;;;;;;;;;11.70;99.90;;;;;;5053054;28;20361;-84
2022/09/12 07:11:40;;;;;;;;;;;12.00;99.90;;;;;;5047526;28;19974;-87
2022/09/12 07:14:06;;;;;;;;;;;12.10;99.90;;;;;;5035936;28;20347;-88
2022/09/12 07:16:33;;;;;;;;;;;12.10;99.90;;;;;;5043060;28;19917;-86
2022/09/12 07:19:00;;;;;;;;;;;12.10;99.90;;;;;;5045637;28;20021;-85
2022/09/12 07:21:26;;;;;;;;;;;12.30;99.90;;;;;;5052418;28;19912;-78
2022/09/12 07:23:54;;;;;;;;;;;12.00;99.90;;;;;;5046723;28;19947;-78
2022/09/12 07:26:19;;;;;;;;;;;12.10;99.90;;;;;;5057253;28;20352;-78
2022/09/12 07:28:49;;;;;;;;;;;11.80;99.90;;;;;;5049674;28;19909;-78
2022/09/12 07:31:16;;;;;;;;;;;11.60;99.90;;;;;;5048431;28;19920;-78
2022/09/12 07:33:42;;;;;;;;;;;11.70;99.90;;;;;;5046634;28;19912;-79
2022/09/12 07:36:10;;;;;;;;;;;12.00;99.90;;;;;;5040601;28;19917;-78
2022/09/12 07:38:36;;;;;;;;;;;12.10;99.90;;;;;;5047782;28;19939;-79
2022/09/12 07:41:09;;;;;;;;;;;12.20;99.90;;;;;;5051781;28;19920;-79
2022/09/12 07:43:34;;;;;;;;;;;12.10;99.90;;;;;;5050643;28;19913;-78
2022/09/12 07:46:00;;;;;;;;;;;12.30;99.90;;;;;;5038660;28;19931;-78
2022/09/12 07:48:26;;;;;;;;;;;12.40;99.90;;;;;;5047709;28;19913;-79
2022/09/12 07:50:58;;;;;;;;;;;12.50;99.90;;;;;;5047283;28;19919;-78
2022/09/12 07:53:24;;;;;;;;;;;12.50;99.90;;;;;;5050532;28;19916;-79
2022/09/12 07:55:56;;;;;;;;;;;12.60;99.90;;;;;;5051515;28;19917;-78
2022/09/12 07:58:24;;;;;;;;;;;12.50;99.90;;;;;;5061470;28;19916;-78
2022/09/12 08:00:50;;;;;;;;;;;12.70;99.90;;;;;;5046888;28;19934;-78
2022/09/12 08:03:16;;;;;;;;;;;12.90;99.90;;;;;;5051181;28;20277;-78
2022/09/12 08:05:42;;;;;;;;;;;12.80;99.90;;;;;;5038670;28;20273;-78
2022/09/12 08:08:07;;;;;;;;;;;13.10;99.90;;;;;;5037374;28;20360;-78
2022/09/12 08:10:32;;;;;;;;;;;13.20;99.90;;;;;;5051139;28;19917;-79
2022/09/12 08:12:58;;;;;;;;;;;13.30;99.90;;;;;;5046909;28;19924;-79
2022/09/12 08:15:24;;;;;;;;;;;13.50;99.90;;;;;;5049281;28;20007;-78
2022/09/12 08:17:49;;;;;;;;;;;13.50;99.90;;;;;;5021291;28;20368;-78
2022/09/12 08:20:16;;;;;;;;;;;13.60;99.90;;;;;;5050305;28;20373;-79
2022/09/12 08:22:42;;;;;;;;;;;13.70;99.90;;;;;;5050324;28;20355;-78
2022/09/12 08:25:07;;;;;;;;;;;13.80;99.90;;;;;;5036777;28;19921;-78
2022/09/12 08:27:33;;;;;;;;;;;14.10;99.90;;;;;;5050711;28;20380;-78
2022/09/12 08:29:59;;;;;;;;;;;14.10;99.90;;;;;;5044371;28;20006;-78
2022/09/12 08:32:24;;;;;;;;;;;14.20;99.90;;;;;;5046819;28;19920;-79
2022/09/12 08:34:50;;;;;;;;;;;14.20;99.90;;;;;;5050025;28;21251;-78
2022/09/12 08:37:16;;;;;;;;;;;14.50;99.90;;;;;;5048971;28;20348;-79
2022/09/12 08:39:42;;;;;;;;;;;14.60;99.90;;;;;;5046764;28;20427;-79
2022/09/12 08:42:09;;;;;;;;;;;14.80;99.90;;;;;;5042060;28;19920;-79
2022/09/12 08:44:40;;;;;;;;;;;15.00;99.90;;;;;;5039192;28;19908;-80
2022/09/12 08:47:05;;;;;;;;;;;14.90;99.90;;;;;;5046946;28;19970;-82
2022/09/12 08:49:43;;;;;;;;;;;15.20;99.90;;;;;;5037145;28;19913;-85
2022/09/12 08:52:14;;;;;;;;;;;15.20;99.90;;;;;;5045581;28;20035;-81
2022/09/12 08:54:43;;;;;;;;;;;15.30;99.90;;;;;;5035407;28;19920;-81
2022/09/12 08:57:10;;;;;;;;;;;15.50;99.90;;;;;;5024574;28;19929;-82
2022/09/12 08:59:38;;;;;;;;;;;15.50;99.90;;;;;;5044123;28;19948;-81
2022/09/12 09:02:14;;;;;;;;;;;15.80;99.90;;;;;;5043697;28;19919;-81
2022/09/12 09:04:49;;;;;;;;;;;15.90;99.90;;;;;;5040727;28;19966;-81
2022/09/12 09:07:24;;;;;;;;;;;16.00;99.90;;;;;;5047888;28;20318;-81
2022/09/12 09:10:09;;;;;;;;;;;15.90;99.90;;;;;;5048524;28;19938;-81
2022/09/12 09:12:59;;;;;;;;;;;16.30;99.90;;;;;;5047904;28;19913;-81
2022/09/12 09:15:28;;;;;;;;;;;16.70;99.90;;;;;;5040038;28;19917;-81
2022/09/12 09:18:03;;;;;;;;;;;16.40;99.90;;;;;;5036421;28;19909;-82
2022/09/12 09:20:47;;;;;;;;;;;16.60;99.90;;;;;;5033709;28;19923;-81
2022/09/12 09:23:19;;;;;;;;;;;16.50;99.90;;;;;;5028266;28;19913;-81
2022/09/12 09:25:48;;;;;;;;;;;16.80;99.90;;;;;;5046829;28;19919;-81
2022/09/12 09:28:18;;;;;;;;;;;17.00;99.90;;;;;;5049852;28;19897;-82
2022/09/12 09:30:43;;;;;;;;;;;17.10;99.90;;;;;;5068229;28;19901;-80
2022/09/12 09:33:15;;;;;;;;;;;17.20;99.90;;;;;;5029716;28;19921;-80
2022/09/12 09:35:45;;;;;;;;;;;17.20;99.90;;;;;;5037449;28;19999;-81
2022/09/12 09:38:22;;;;;;;;;;;17.50;99.90;;;;;;5046276;28;19925;-80
2022/09/12 09:40:57;;;;;;;;;;;17.70;99.90;;;;;;5038321;28;19978;-80
2022/09/12 09:43:27;;;;;;;;;;;18.20;99.90;;;;;;5046461;28;19916;-79
2022/09/12 09:45:53;;;;;;;;;;;18.30;99.90;;;;;;5047969;28;19923;-80
2022/09/12 09:48:19;;;;;;;;;;;18.50;99.90;;;;;;5050860;28;20296;-80
2022/09/12 09:50:45;;;;;;;;;;;18.10;99.90;;;;;;5044629;28;19912;-80
2022/09/12 09:53:24;;;;;;;;;;;18.40;99.90;;;;;;5048277;28;19989;-80
2022/09/12 09:55:50;;;;;;;;;;;18.70;99.90;;;;;;5046255;28;19913;-80
2022/09/12 09:58:28;;;;;;;;;;;18.60;99.90;;;;;;5049717;28;20409;-81
2022/09/12 10:00:58;;;;;;;;;;;19.10;99.90;;;;;;5048053;28;19970;-80
2022/09/12 10:03:27;;;;;;;;;;;19.20;98.70;;;;;;5044609;28;19941;-80
2022/09/12 10:05:54;;;;;;;;;;;19.60;99.00;;;;;;5046018;28;19924;-80
2022/09/12 10:08:20;;;;;;;;;;;19.40;96.40;;;;;;5046432;28;20303;-80
2022/09/12 10:10:53;;;;;;;;;;;19.60;95.10;;;;;;5043870;28;20446;-80
2022/09/12 10:13:38;;;;;;;;;;;19.40;97.30;;;;;;5048009;28;19917;-80
2022/09/12 10:16:05;;;;;;;;;;;19.60;96.60;;;;;;5042443;28;19933;-80
2022/09/12 10:18:33;;;;;;;;;;;19.90;96.20;;;;;;5044482;28;20004;-80
2022/09/12 10:21:00;;;;;;;;;;;19.90;97.10;;;;;;5046718;28;20106;-79
2022/09/12 10:23:27;;;;;;;;;;;20.00;93.60;;;;;;5045329;28;19916;-79
2022/09/12 10:25:55;;;;;;;;;;;20.10;94.40;;;;;;5035016;28;20007;-79
2022/09/12 10:28:29;;;;;;;;;;;20.20;94.80;;;;;;5042464;28;20417;-79
2022/09/12 10:30:55;;;;;;;;;;;20.40;95.00;;;;;;5045271;28;19912;-79
2022/09/12 10:33:23;;;;;;;;;;;20.40;94.00;;;;;;5052663;28;20356;-79
2022/09/12 10:35:49;;;;;;;;;;;20.40;91.50;;;;;;5043206;28;19939;-78
2022/09/12 10:38:25;;;;;;;;;;;20.50;91.90;;;;;;5045131;28;20296;-79
2022/09/12 10:40:58;;;;;;;;;;;20.70;91.00;;;;;;5037065;28;19920;-79
2022/09/12 10:43:26;;;;;;;;;;;20.80;90.70;;;;;;5039510;28;19947;-78
2022/09/12 10:45:56;;;;;;;;;;;20.90;90.60;;;;;;5048434;28;19966;-78
2022/09/12 10:48:30;;;;;;;;;;;21.30;85.60;;;;;;5044871;28;20512;-76
2022/09/12 10:50:56;;;;;;;;;;;22.00;81.50;;;;;;5048594;28;19955;-76
2022/09/12 10:53:31;;;;;;;;;;;22.30;79.20;;;;;;5034302;28;20007;-76
2022/09/12 10:56:06;;;;;;;;;;;23.10;77.40;;;;;;5036950;28;19962;-76
2022/09/12 10:58:37;;;;;;;;;;;23.40;75.30;;;;;;5046628;28;20003;-76
2022/09/12 11:01:08;;;;;;;;;;;23.40;71.80;;;;;;5041375;28;19924;-75
2022/09/12 11:04:03;;;;;;;;;;;23.60;72.40;;;;;;5047331;28;20035;-78
2022/09/12 11:06:35;;;;;;;;;;;23.30;70.40;;;;;;4980634;28;19917;-78
2022/09/12 11:09:04;;;;;;;;;;;23.70;72.00;;;;;;5043441;28;19920;-77
2022/09/12 11:11:56;;;;;;;;;;;23.50;70.40;;;;;;5049393;28;19952;-78
2022/09/12 11:14:21;;;;;;;;;;;23.70;66.30;;;;;;5037540;28;20882;-76
2022/09/12 11:16:56;;;;;;;;;;;24.20;66.10;;;;;;5043074;28;19920;-78
2022/09/12 11:19:40;;;;;;;;;;;24.20;62.30;;;;;;5042557;28;19913;-77
2022/09/12 11:22:11;;;;;;;;;;;24.00;62.40;;;;;;5041188;28;19960;-77
2022/09/12 11:24:37;;;;;;;;;;;23.70;65.50;;;;;;5049545;28;19971;-77
2022/09/12 11:27:21;;;;;;;;;;;24.10;66.80;;;;;;5044866;28;20331;-77
2022/09/12 11:29:57;;;;;;;;;;;24.30;62.00;;;;;;5042574;28;19959;-77
2022/09/12 11:32:39;;;;;;;;;;;24.60;60.70;;;;;;5040997;28;19928;-77
2022/09/12 11:35:14;;;;;;;;;;;24.80;60.00;;;;;;5049391;28;19984;-76
2022/09/12 11:37:39;;;;;;;;;;;24.70;60.30;;;;;;5047965;28;20380;-77
2022/09/12 11:40:26;;;;;;;;;;;25.30;58.40;;;;;;5050995;28;19920;-77
2022/09/12 11:42:55;;;;;;;;;;;25.60;55.10;;;;;;5048127;28;20003;-77
2022/09/12 11:45:53;;;;;;;;;;;25.60;55.00;;;;;;5043888;28;20003;-77
2022/09/12 11:48:38;;;;;;;;;;;25.80;52.90;;;;;;4992457;28;19959;-77
2022/09/12 11:51:06;;;;;;;;;;;25.40;57.60;;;;;;5046350;28;20018;-77
2022/09/12 11:53:37;;;;;;;;;;;25.90;52.00;;;;;;5035452;28;19919;-77
2022/09/12 11:56:13;;;;;;;;;;;26.80;49.60;;;;;;5054684;28;19913;-77
2022/09/12 11:58:40;;;;;;;;;;;26.30;51.70;;;;;;5039297;28;19920;-77
2022/09/12 12:01:11;;;;;;;;;;;26.00;51.30;;;;;;5041269;28;20003;-77
2022/09/12 12:03:41;;;;;;;;;;;26.90;48.90;;;;;;5042501;28;19942;-77
2022/09/12 12:06:12;;;;;;;;;;;26.50;51.70;;;;;;5044450;28;19982;-77
2022/09/12 12:08:40;;;;;;;;;;;27.10;45.70;;;;;;5036611;28;19917;-77
2022/09/12 12:11:07;;;;;;;;;;;26.70;43.70;;;;;;5040178;28;19920;-77
2022/09/12 12:13:38;;;;;;;;;;;27.20;43.20;;;;;;5050166;28;19912;-78
2022/09/12 12:16:07;;;;;;;;;;;27.70;39.80;;;;;;5043395;28;20370;-77
2022/09/12 12:18:35;;;;;;;;;;;26.80;42.50;;;;;;5044783;28;19915;-76
2022/09/12 12:21:20;;;;;;;;;;;26.80;39.70;;;;;;5045076;28;19919;-77
2022/09/12 12:24:04;;;;;;;;;;;27.20;39.00;;;;;;5047681;28;19915;-77
2022/09/12 12:26:39;;;;;;;;;;;28.30;37.20;;;;;;5047685;28;19963;-77
2022/09/12 12:29:08;;;;;;;;;;;28.00;38.60;;;;;;5070450;28;19909;-77
2022/09/12 12:31:53;;;;;;;;;;;27.40;40.00;;;;;;5042048;28;19927;-77
2022/09/12 12:34:21;;;;;;;;;;;27.70;41.10;;;;;;5046535;28;19919;-77
2022/09/12 12:36:49;;;;;;;;;;;28.70;36.20;;;;;;5041978;28;19920;-77
2022/09/12 12:39:32;;;;;;;;;;;28.00;37.10;;;;;;5048129;28;20462;-78
2022/09/12 12:41:59;;;;;;;;;;;27.00;37.50;;;;;;5039966;28;20594;-77
2022/09/12 12:44:42;;;;;;;;;;;26.90;37.70;;;;;;5044328;28;19935;-78
2022/09/12 12:47:24;;;;;;;;;;;27.90;36.20;;;;;;5050690;28;20066;-80
2022/09/12 12:49:51;;;;;;;;;;;27.30;34.70;;;;;;5044881;28;19909;-78
2022/09/12 12:52:17;;;;;;;;;;;28.70;33.20;;;;;;5049852;28;19920;-79
2022/09/12 12:54:42;;;;;;;;;;;27.80;38.30;;;;;;5050211;28;19912;-78
2022/09/12 12:57:16;;;;;;;;;;;27.90;34.70;;;;;;5049153;28;20415;-77
2022/09/12 12:59:46;;;;;;;;;;;27.40;35.30;;;;;;5041221;28;20340;-78
2022/09/12 13:02:18;;;;;;;;;;;26.30;37.20;;;;;;5043409;28;19923;-78
2022/09/12 13:04:44;;;;;;;;;;;26.80;34.20;;;;;;5050069;28;19956;-78
2022/09/12 13:07:19;;;;;;;;;;;26.60;35.70;;;;;;5046373;28;19959;-78
2022/09/12 13:09:46;;;;;;;;;;;27.30;33.20;;;;;;5049644;28;19916;-78
2022/09/12 13:12:23;;;;;;;;;;;27.50;34.30;;;;;;5043453;28;19916;-78
2022/09/12 13:14:53;;;;;;;;;;;28.20;31.50;;;;;;5057025;28;20399;-78
2022/09/12 13:17:19;;;;;;;;;;;28.70;31.30;;;;;;5047283;28;19974;-78
2022/09/12 13:19:45;;;;;;;;;;;29.50;27.60;;;;;;5037556;28;20327;-78
2022/09/12 13:22:11;;;;;;;;;;;30.20;28.90;;;;;;5052273;28;20702;-78
2022/09/12 13:24:43;;;;;;;;;;;30.20;31.00;;;;;;5034719;28;19921;-79
2022/09/12 13:27:18;;;;;;;;;;;30.30;29.40;;;;;;5036797;28;20043;-77
2022/09/12 13:29:44;;;;;;;;;;;29.60;29.50;;;;;;5042769;28;19920;-77
2022/09/12 13:32:09;;;;;;;;;;;29.10;30.20;;;;;;5044914;28;19921;-76
2022/09/12 13:34:39;;;;;;;;;;;31.40;26.40;;;;;;5046212;28;19916;-76
2022/09/12 13:37:07;;;;;;;;;;;31.90;25.60;;;;;;5037149;28;19909;-78
2022/09/12 13:39:36;;;;;;;;;;;30.30;27.10;;;;;;5044892;28;19916;-77
2022/09/12 13:42:20;;;;;;;;;;;30.50;27.10;;;;;;5040702;28;20016;-78
2022/09/12 13:45:07;;;;;;;;;;;31.80;25.20;;;;;;5025333;28;19913;-78
2022/09/12 13:47:35;;;;;;;;;;;30.50;26.30;;;;;;5049663;28;19908;-78
2022/09/12 13:50:01;;;;;;;;;;;30.40;27.00;;;;;;5044420;28;19913;-78
2022/09/12 13:52:30;;;;;;;;;;;31.60;27.30;;;;;;5048146;28;19924;-79
2022/09/12 13:54:57;;;;;;;;;;;32.30;26.30;;;;;;5041005;28;20000;-77
2022/09/12 13:57:33;;;;;;;;;;;31.10;26.20;;;;;;5045032;28;19963;-79
2022/09/12 14:00:00;;;;;;;;;;;31.70;25.70;;;;;;5045139;28;20364;-80
2022/09/12 14:02:27;;;;;;;;;;;33.20;24.90;;;;;;5042605;28;19913;-81
2022/09/12 14:05:09;;;;;;;;;;;31.70;24.80;;;;;;5036693;28;19912;-81
2022/09/12 14:07:39;;;;;;;;;;;33.50;23.80;;;;;;5041765;28;20380;-81
2022/09/12 14:10:06;;;;;;;;;;;34.40;22.70;;;;;;5051083;28;20007;-82
2022/09/12 14:12:39;;;;;;;;;;;34.60;23.40;;;;;;5046678;28;19916;-82
2022/09/12 14:15:10;;;;;;;;;;;33.20;23.90;;;;;;5042225;28;19916;-80
2022/09/12 14:17:38;;;;;;;;;;;33.50;24.10;;;;;;5034733;28;19917;-81
2022/09/12 14:20:10;;;;;;;;;;;35.20;22.70;;;;;;5041548;28;19917;-80
2022/09/12 14:22:37;;;;;;;;;;;34.70;22.90;;;;;;5047370;28;20668;-80
2022/09/12 14:25:03;;;;;;;;;;;35.20;21.60;;;;;;5031594;28;20356;-84
2022/09/12 14:27:37;;;;;;;;;;;36.30;20.80;;;;;;5042967;28;20011;-80
2022/09/12 14:30:14;;;;;;;;;;;35.30;21.40;;;;;;5040217;28;19909;-80
2022/09/12 14:32:40;;;;;;;;;;;33.50;22.90;;;;;;5042684;28;19924;-81
2022/09/12 14:35:18;;;;;;;;;;;33.70;24.90;;;;;;5044826;28;19921;-80